createdAt,value
2019-04-06T00:00:05.548Z,978.95
2019-04-06T00:01:05.671Z,979.00
2019-04-06T00:02:05.797Z,978.98
2019-04-06T00:03:05.929Z,978.96
2019-04-06T00:04:06.064Z,978.99
2019-04-06T00:05:06.236Z,978.97
2019-04-06T00:06:06.310Z,979.01
2019-04-06T00:07:06.439Z,978.97
2019-04-06T00:08:06.565Z,978.97
2019-04-06T00:09:06.693Z,978.97
2019-04-06T00:10:06.857Z,978.98
2019-04-06T00:11:06.985Z,978.98
2019-04-06T00:12:07.110Z,979.01
2019-04-06T00:13:07.259Z,978.97
2019-04-06T00:14:07.387Z,978.99
2019-04-06T00:15:07.514Z,979.03
2019-04-06T00:16:07.646Z,979.01
2019-04-06T00:17:07.773Z,978.98
2019-04-06T00:18:07.917Z,979.00
2019-04-06T00:19:08.046Z,978.98
2019-04-06T00:20:08.179Z,978.96
2019-04-06T00:21:08.327Z,978.97
2019-04-06T00:22:08.446Z,978.97
2019-04-06T00:23:08.582Z,978.98
2019-04-06T00:24:08.748Z,978.97
2019-04-06T00:25:08.864Z,978.99
2019-04-06T00:26:08.997Z,979.00
2019-04-06T00:27:09.140Z,978.97
2019-04-06T00:28:09.275Z,978.98
2019-04-06T00:29:09.394Z,978.98
2019-04-06T00:30:09.514Z,978.98
2019-04-06T00:31:09.670Z,978.91
2019-04-06T00:32:09.801Z,978.95
2019-04-06T00:33:09.929Z,978.90
2019-04-06T00:34:10.066Z,978.98
2019-04-06T00:35:10.188Z,978.98
2019-04-06T00:36:10.311Z,978.95
2019-04-06T00:37:10.438Z,979.00
2019-04-06T00:38:10.562Z,978.99
2019-04-06T00:39:10.690Z,979.06
2019-04-06T00:40:10.845Z,979.04
2019-04-06T00:41:10.966Z,979.06
2019-04-06T00:42:11.108Z,979.05
2019-04-06T00:43:11.226Z,979.08
2019-04-06T00:44:11.389Z,979.09
2019-04-06T00:45:11.520Z,979.10
2019-04-06T00:46:11.660Z,979.13
2019-04-06T00:47:11.775Z,979.08
2019-04-06T00:48:11.926Z,979.10
2019-04-06T00:49:12.053Z,979.10
2019-04-06T00:50:12.179Z,979.11
2019-04-06T00:51:12.337Z,979.13
2019-04-06T00:52:12.457Z,979.12
2019-04-06T00:53:12.579Z,979.14
2019-04-06T00:54:12.709Z,979.13
2019-04-06T00:55:12.865Z,979.11
2019-04-06T00:56:12.985Z,979.17
2019-04-06T00:57:13.116Z,979.16
2019-04-06T00:58:13.312Z,979.12
2019-04-06T00:59:13.393Z,979.11
2019-04-06T01:00:13.515Z,979.14
2019-04-06T01:01:13.648Z,979.15
2019-04-06T01:02:13.776Z,979.21
2019-04-06T01:03:13.900Z,979.18
2019-04-06T01:04:14.027Z,979.17
2019-04-06T01:05:14.160Z,979.16
2019-04-06T01:06:14.304Z,979.17
2019-04-06T01:07:14.426Z,979.12
2019-04-06T01:08:14.551Z,979.15
2019-04-06T01:09:14.682Z,979.16
2019-04-06T01:10:14.846Z,979.16
2019-04-06T01:11:14.995Z,979.17
2019-04-06T01:12:15.093Z,979.18
2019-04-06T01:13:15.258Z,979.18
2019-04-06T01:14:15.357Z,979.17
2019-04-06T01:15:15.543Z,979.16
2019-04-06T01:16:15.611Z,979.12
2019-04-06T01:17:15.743Z,979.07
2019-04-06T01:18:15.888Z,979.09
2019-04-06T01:19:15.993Z,979.07
2019-04-06T01:20:16.125Z,979.10
2019-04-06T01:21:16.254Z,979.13
2019-04-06T01:22:16.381Z,979.13
2019-04-06T01:23:16.506Z,979.10
2019-04-06T01:24:16.636Z,979.11
2019-04-06T01:25:16.762Z,979.14
2019-04-06T01:26:16.896Z,979.16
2019-04-06T01:27:17.066Z,979.18
2019-04-06T01:28:17.186Z,979.18
2019-04-06T01:29:17.317Z,979.20
2019-04-06T01:30:17.473Z,979.17
2019-04-06T01:31:17.603Z,979.14
2019-04-06T01:32:17.725Z,979.17
2019-04-06T01:33:17.859Z,979.20
2019-04-06T01:34:18.003Z,979.14
2019-04-06T01:35:18.116Z,979.20
2019-04-06T01:36:18.240Z,979.19
2019-04-06T01:37:18.367Z,979.22
2019-04-06T01:38:18.506Z,979.19
2019-04-06T01:39:18.621Z,979.21
2019-04-06T01:40:18.748Z,979.18
2019-04-06T01:41:18.898Z,979.18
2019-04-06T01:42:19.019Z,979.16
2019-04-06T01:43:19.190Z,979.15
2019-04-06T01:44:19.291Z,979.08
2019-04-06T01:45:19.412Z,979.10
2019-04-06T01:46:19.542Z,979.01
2019-04-06T01:47:19.667Z,979.04
2019-04-06T01:48:19.820Z,979.01
2019-04-06T01:49:19.947Z,979.01
2019-04-06T01:50:20.069Z,979.03
2019-04-06T01:51:20.245Z,979.04
2019-04-06T01:52:20.334Z,979.03
2019-04-06T01:53:20.453Z,978.96
2019-04-06T01:54:20.578Z,978.99
2019-04-06T01:55:20.701Z,978.97
2019-04-06T01:56:20.851Z,978.98
2019-04-06T01:57:21.049Z,979.02
2019-04-06T01:58:21.060Z,978.98
2019-04-06T01:59:21.188Z,979.01
2019-04-06T02:00:21.331Z,979.00
2019-04-06T02:01:21.483Z,978.98
2019-04-06T02:02:21.582Z,979.03
2019-04-06T02:03:21.706Z,979.03
2019-04-06T02:04:21.843Z,978.99
2019-04-06T02:05:21.958Z,978.97
2019-04-06T02:06:22.106Z,979.02
2019-04-06T02:07:22.222Z,978.97
2019-04-06T02:08:22.367Z,978.98
2019-04-06T02:09:22.567Z,979.03
2019-04-06T02:10:22.568Z,978.96
2019-04-06T02:11:22.694Z,978.97
2019-04-06T02:12:22.850Z,978.98
2019-04-06T02:13:23.098Z,978.99
2019-04-06T02:14:23.107Z,978.96
2019-04-06T02:15:23.255Z,978.95
2019-04-06T02:16:23.392Z,978.96
2019-04-06T02:17:23.509Z,978.93
2019-04-06T02:18:23.635Z,978.88
2019-04-06T02:19:23.774Z,978.96
2019-04-06T02:20:23.891Z,978.92
2019-04-06T02:21:24.042Z,979.00
2019-04-06T02:22:24.166Z,978.96
2019-04-06T02:23:24.294Z,978.96
2019-04-06T02:24:24.524Z,978.94
2019-04-06T02:25:24.674Z,979.01
2019-04-06T02:26:30.232Z,978.95
2019-04-06T02:27:24.794Z,978.96
2019-04-06T02:28:24.921Z,978.95
2019-04-06T02:29:25.049Z,978.97
2019-04-06T02:30:25.220Z,978.98
2019-04-06T02:31:25.337Z,978.95
2019-04-06T02:32:25.467Z,979.00
2019-04-06T02:33:25.608Z,978.98
2019-04-06T02:34:25.909Z,978.94
2019-04-06T02:35:25.944Z,978.98
2019-04-06T02:36:26.012Z,978.99
2019-04-06T02:37:26.150Z,979.01
2019-04-06T02:38:26.271Z,979.04
2019-04-06T02:39:26.405Z,979.03
2019-04-06T02:40:26.524Z,979.03
2019-04-06T02:41:26.659Z,979.07
2019-04-06T02:42:26.792Z,979.08
2019-04-06T02:43:26.910Z,979.10
2019-04-06T02:44:27.106Z,979.01
2019-04-06T02:45:27.170Z,979.05
2019-04-06T02:46:30.320Z,979.07
2019-04-06T02:47:27.475Z,979.07
2019-04-06T02:48:27.570Z,979.12
2019-04-06T02:49:27.687Z,979.12
2019-04-06T02:50:27.825Z,979.11
2019-04-06T02:51:27.940Z,979.04
2019-04-06T02:52:28.171Z,979.07
2019-04-06T02:53:28.215Z,979.14
2019-04-06T02:54:28.339Z,979.11
2019-04-06T02:55:28.590Z,979.14
2019-04-06T02:56:28.601Z,979.13
2019-04-06T02:57:28.755Z,979.13
2019-04-06T02:58:28.855Z,979.09
2019-04-06T02:59:28.982Z,979.08
2019-04-06T03:00:29.120Z,979.06
2019-04-06T03:01:29.255Z,979.06
2019-04-06T03:02:29.371Z,979.05
2019-04-06T03:03:29.498Z,979.06
2019-04-06T03:04:29.653Z,979.07
2019-04-06T03:05:29.784Z,979.07
2019-04-06T03:06:29.913Z,979.06
2019-04-06T03:07:30.066Z,979.04
2019-04-06T03:08:30.157Z,979.04
2019-04-06T03:09:30.285Z,979.06
2019-04-06T03:10:30.406Z,979.08
2019-04-06T03:11:30.555Z,979.08
2019-04-06T03:12:30.711Z,979.07
2019-04-06T03:13:30.837Z,979.05
2019-04-06T03:14:30.963Z,979.00
2019-04-06T03:15:31.172Z,979.06
2019-04-06T03:16:31.243Z,979.04
2019-04-06T03:17:31.511Z,979.02
2019-04-06T03:18:31.494Z,979.05
2019-04-06T03:19:31.655Z,979.03
2019-04-06T03:20:31.858Z,979.06
2019-04-06T03:21:31.906Z,979.12
2019-04-06T03:22:32.046Z,979.03
2019-04-06T03:23:32.172Z,979.07
2019-04-06T03:24:32.298Z,979.08
2019-04-06T03:25:32.425Z,979.09
2019-04-06T03:26:32.567Z,979.09
2019-04-06T03:27:32.695Z,979.14
2019-04-06T03:28:32.913Z,979.16
2019-04-06T03:29:32.949Z,979.15
2019-04-06T03:30:33.075Z,979.20
2019-04-06T03:31:33.218Z,979.18
2019-04-06T03:32:33.355Z,979.20
2019-04-06T03:33:33.475Z,979.21
2019-04-06T03:34:33.608Z,979.22
2019-04-06T03:35:33.775Z,979.18
2019-04-06T03:36:34.112Z,979.22
2019-04-06T03:37:34.004Z,979.23
2019-04-06T03:38:34.126Z,979.22
2019-04-06T03:39:34.268Z,979.21
2019-04-06T03:40:34.395Z,979.15
2019-04-06T03:41:34.530Z,979.15
2019-04-06T03:42:34.680Z,979.16
2019-04-06T03:43:34.801Z,979.20
2019-04-06T03:44:35.081Z,979.14
2019-04-06T03:45:35.058Z,979.13
2019-04-06T03:46:35.194Z,979.13
2019-04-06T03:47:35.329Z,979.11
2019-04-06T03:48:35.446Z,979.08
2019-04-06T03:49:35.574Z,979.10
2019-04-06T03:50:35.714Z,979.09
2019-04-06T03:51:35.847Z,979.09
2019-04-06T03:52:36.025Z,979.10
2019-04-06T03:53:36.087Z,979.08
2019-04-06T03:54:36.233Z,979.12
2019-04-06T03:55:36.339Z,979.11
2019-04-06T03:56:36.477Z,979.09
2019-04-06T03:57:36.624Z,979.11
2019-04-06T03:58:36.774Z,979.11
2019-04-06T03:59:36.867Z,979.11
2019-04-06T04:00:37.076Z,979.12
2019-04-06T04:01:37.125Z,979.13
2019-04-06T04:02:37.358Z,979.12
2019-04-06T04:03:37.383Z,979.12
2019-04-06T04:04:37.510Z,979.13
2019-04-06T04:05:37.638Z,979.17
2019-04-06T04:06:37.792Z,979.14
2019-04-06T04:07:37.968Z,979.15
2019-04-06T04:08:38.048Z,979.09
2019-04-06T04:09:38.175Z,979.08
2019-04-06T04:10:38.310Z,979.09
2019-04-06T04:11:38.422Z,979.10
2019-04-06T04:12:38.548Z,979.14
2019-04-06T04:13:38.818Z,979.13
2019-04-06T04:14:38.891Z,979.12
2019-04-06T04:15:39.281Z,979.15
2019-04-06T04:16:39.066Z,979.14
2019-04-06T04:17:39.194Z,979.18
2019-04-06T04:18:39.348Z,979.17
2019-04-06T04:19:39.450Z,979.12
2019-04-06T04:20:39.578Z,979.14
2019-04-06T04:21:39.708Z,979.12
2019-04-06T04:22:39.830Z,979.14
2019-04-06T04:23:39.966Z,979.14
2019-04-06T04:24:40.099Z,979.15
2019-04-06T04:25:40.327Z,979.14
2019-04-06T04:26:40.356Z,979.12
2019-04-06T04:27:40.713Z,979.17
2019-04-06T04:28:40.670Z,979.13
2019-04-06T04:29:40.786Z,979.15
2019-04-06T04:30:40.967Z,979.15
2019-04-06T04:31:41.045Z,979.18
2019-04-06T04:32:41.209Z,979.17
2019-04-06T04:33:41.335Z,979.23
2019-04-06T04:34:41.450Z,979.15
2019-04-06T04:35:41.599Z,979.19
2019-04-06T04:36:41.707Z,979.20
2019-04-06T04:37:41.834Z,979.22
2019-04-06T04:38:41.968Z,979.23
2019-04-06T04:39:42.089Z,979.20
2019-04-06T04:40:42.220Z,979.24
2019-04-06T04:41:42.349Z,979.29
2019-04-06T04:42:42.490Z,979.26
2019-04-06T04:43:42.613Z,979.21
2019-04-06T04:44:42.760Z,979.27
2019-04-06T04:45:42.878Z,979.26
2019-04-06T04:46:43.002Z,979.26
2019-04-06T04:47:43.147Z,979.21
2019-04-06T04:48:43.274Z,979.27
2019-04-06T04:49:43.399Z,979.25
2019-04-06T04:50:43.530Z,979.29
2019-04-06T04:51:43.658Z,979.31
2019-04-06T04:52:43.803Z,979.34
2019-04-06T04:53:43.928Z,979.31
2019-04-06T04:54:44.061Z,979.32
2019-04-06T04:55:44.184Z,979.36
2019-04-06T04:56:44.328Z,979.34
2019-04-06T04:57:45.519Z,979.39
2019-04-06T04:58:44.594Z,979.41
2019-04-06T04:59:44.709Z,979.40
2019-04-06T05:00:44.841Z,979.33
2019-04-06T05:01:44.986Z,979.37
2019-04-06T05:02:45.113Z,979.35
2019-04-06T05:03:45.556Z,979.35
2019-04-06T05:04:45.370Z,979.37
2019-04-06T05:05:45.516Z,979.40
2019-04-06T05:06:45.641Z,979.45
2019-04-06T05:07:45.905Z,979.47
2019-04-06T05:08:46.118Z,979.45
2019-04-06T05:09:46.066Z,979.51
2019-04-06T05:10:46.174Z,979.56
2019-04-06T05:11:46.311Z,979.56
2019-04-06T05:12:46.441Z,979.59
2019-04-06T05:13:46.699Z,979.56
2019-04-06T05:14:46.755Z,979.60
2019-04-06T05:15:46.860Z,979.58
2019-04-06T05:16:46.996Z,979.63
2019-04-06T05:17:47.127Z,979.66
2019-04-06T05:18:47.255Z,979.69
2019-04-06T05:19:47.385Z,979.74
2019-04-06T05:20:47.555Z,979.72
2019-04-06T05:21:47.682Z,979.70
2019-04-06T05:22:47.805Z,979.69
2019-04-06T05:23:47.936Z,979.67
2019-04-06T05:24:48.064Z,979.73
2019-04-06T05:25:48.203Z,979.72
2019-04-06T05:26:48.321Z,979.70
2019-04-06T05:27:52.765Z,979.67
2019-04-06T05:28:48.578Z,979.66
2019-04-06T05:29:48.710Z,979.67
2019-04-06T05:30:49.059Z,979.63
2019-04-06T05:31:48.992Z,979.67
2019-04-06T05:32:49.115Z,979.68
2019-04-06T05:33:49.263Z,979.69
2019-04-06T05:34:49.372Z,979.70
2019-04-06T05:35:49.508Z,979.69
2019-04-06T05:36:49.629Z,979.67
2019-04-06T05:37:49.757Z,979.70
2019-04-06T05:38:49.891Z,979.67
2019-04-06T05:39:50.023Z,979.67
2019-04-06T05:40:50.137Z,979.66
2019-04-06T05:41:50.750Z,979.67
2019-04-06T05:42:50.422Z,979.65
2019-04-06T05:43:50.755Z,979.70
2019-04-06T05:44:50.669Z,979.71
2019-04-06T05:45:50.801Z,979.73
2019-04-06T05:46:50.931Z,979.71
2019-04-06T05:47:51.218Z,979.78
2019-04-06T05:48:51.195Z,979.74
2019-04-06T05:49:51.337Z,979.74
2019-04-06T05:50:51.454Z,979.79
2019-04-06T05:51:51.592Z,979.78
2019-04-06T05:52:51.716Z,979.77
2019-04-06T05:53:52.043Z,979.78
2019-04-06T05:54:51.974Z,979.72
2019-04-06T05:55:52.114Z,979.73
2019-04-06T05:56:52.239Z,979.73
2019-04-06T05:58:03.126Z,979.71
2019-04-06T05:58:52.499Z,979.75
2019-04-06T05:59:52.624Z,979.70
2019-04-06T06:00:52.766Z,979.74
2019-04-06T06:01:52.915Z,979.74
2019-04-06T06:02:53.020Z,979.75
2019-04-06T06:03:53.178Z,979.75
2019-04-06T06:04:53.296Z,979.77
2019-04-06T06:05:53.428Z,979.76
2019-04-06T06:06:53.620Z,979.76
2019-04-06T06:07:53.717Z,979.77
2019-04-06T06:08:53.837Z,979.78
2019-04-06T06:09:53.972Z,979.85
2019-04-06T06:10:54.166Z,979.82
2019-04-06T06:11:55.616Z,979.82
2019-04-06T06:12:54.368Z,979.85
2019-04-06T06:13:54.478Z,979.82
2019-04-06T06:14:54.600Z,979.87
2019-04-06T06:15:54.739Z,979.86
2019-04-06T06:16:54.873Z,979.80
2019-04-06T06:17:54.992Z,979.82
2019-04-06T06:18:55.129Z,979.83
2019-04-06T06:19:55.262Z,979.85
2019-04-06T06:20:55.389Z,979.90
2019-04-06T06:21:55.520Z,979.90
2019-04-06T06:22:55.769Z,979.86
2019-04-06T06:23:55.804Z,979.91
2019-04-06T06:24:55.966Z,979.92
2019-04-06T06:25:56.127Z,979.93
2019-04-06T06:26:56.212Z,979.89
2019-04-06T06:27:56.328Z,979.94
2019-04-06T06:28:56.452Z,979.94
2019-04-06T06:29:56.584Z,980.03
2019-04-06T06:30:56.732Z,979.97
2019-04-06T06:31:57.081Z,979.99
2019-04-06T06:32:56.991Z,979.96
2019-04-06T06:33:57.137Z,980.00
2019-04-06T06:34:57.269Z,979.98
2019-04-06T06:35:57.393Z,979.95
2019-04-06T06:36:57.757Z,979.96
2019-04-06T06:37:57.653Z,979.95
2019-04-06T06:38:57.800Z,979.94
2019-04-06T06:39:57.930Z,979.98
2019-04-06T06:40:58.054Z,979.96
2019-04-06T06:41:58.203Z,979.99
2019-04-06T06:42:58.340Z,980.01
2019-04-06T06:43:58.475Z,979.98
2019-04-06T06:44:58.602Z,979.98
2019-04-06T06:45:58.769Z,979.98
2019-04-06T06:46:58.887Z,980.02
2019-04-06T06:47:59.017Z,980.03
2019-04-06T06:48:59.152Z,980.03
2019-04-06T06:49:59.305Z,980.06
2019-04-06T06:50:59.429Z,980.08
2019-04-06T06:51:59.573Z,980.13
2019-04-06T06:52:59.679Z,980.10
2019-04-06T06:53:59.816Z,980.12
2019-04-06T06:54:59.938Z,980.11
2019-04-06T06:56:00.091Z,980.12
2019-04-06T06:57:00.227Z,980.10
2019-04-06T06:58:00.355Z,980.06
2019-04-06T06:59:00.480Z,980.11
2019-04-06T07:00:00.618Z,980.11
2019-04-06T07:01:03.095Z,980.08
2019-04-06T07:02:00.879Z,980.12
2019-04-06T07:03:01.050Z,980.14
2019-04-06T07:04:01.153Z,980.10
2019-04-06T07:05:01.294Z,980.11
2019-04-06T07:06:01.421Z,980.11
2019-04-06T07:07:01.741Z,980.12
2019-04-06T07:08:01.703Z,980.13
2019-04-06T07:09:01.826Z,980.19
2019-04-06T07:10:05.883Z,980.18
2019-04-06T07:11:02.111Z,980.16
2019-04-06T07:12:02.229Z,980.18
2019-04-06T07:13:02.374Z,980.16
2019-04-06T07:14:02.653Z,980.18
2019-04-06T07:15:02.640Z,980.17
2019-04-06T07:16:02.763Z,980.22
2019-04-06T07:17:02.892Z,980.17
2019-04-06T07:18:03.047Z,980.20
2019-04-06T07:19:03.157Z,980.18
2019-04-06T07:20:03.279Z,980.15
2019-04-06T07:21:03.406Z,980.16
2019-04-06T07:22:03.542Z,980.16
2019-04-06T07:23:03.674Z,980.10
2019-04-06T07:24:03.820Z,980.12
2019-04-06T07:25:03.979Z,980.11
2019-04-06T07:26:04.160Z,980.14
2019-04-06T07:27:04.231Z,980.16
2019-04-06T07:28:04.390Z,980.18
2019-04-06T07:29:04.522Z,980.21
2019-04-06T07:30:04.637Z,980.26
2019-04-06T07:31:04.763Z,980.22
2019-04-06T07:32:05.081Z,980.26
2019-04-06T07:33:05.035Z,980.25
2019-04-06T07:34:05.163Z,980.29
2019-04-06T07:35:05.297Z,980.25
2019-04-06T07:36:05.425Z,980.25
2019-04-06T07:37:05.566Z,980.21
2019-04-06T07:38:05.685Z,980.27
2019-04-06T07:39:05.927Z,980.25
2019-04-06T07:40:05.949Z,980.25
2019-04-06T07:41:06.263Z,980.26
2019-04-06T07:42:06.252Z,980.24
2019-04-06T07:43:06.333Z,980.26
2019-04-06T07:44:06.517Z,980.26
2019-04-06T07:45:06.594Z,980.25
2019-04-06T07:46:06.722Z,980.27
2019-04-06T07:47:07.049Z,980.26
2019-04-06T07:48:06.988Z,980.24
2019-04-06T07:49:09.372Z,980.23
2019-04-06T07:50:07.281Z,980.26
2019-04-06T07:51:07.381Z,980.30
2019-04-06T07:52:07.519Z,980.28
2019-04-06T07:53:07.647Z,980.22
2019-04-06T07:54:07.782Z,980.27
2019-04-06T07:55:08.066Z,980.27
2019-04-06T07:56:08.160Z,980.23
2019-04-06T07:57:08.177Z,980.22
2019-04-06T07:58:08.462Z,980.22
2019-04-06T07:59:08.433Z,980.22
2019-04-06T08:00:08.565Z,980.26
2019-04-06T08:01:08.692Z,980.22
2019-04-06T08:02:08.828Z,980.22
2019-04-06T08:03:08.957Z,980.21
2019-04-06T08:04:09.101Z,980.17
2019-04-06T08:05:09.241Z,980.18
2019-04-06T08:06:09.376Z,980.17
2019-04-06T08:07:09.478Z,980.19
2019-04-06T08:08:09.618Z,980.21
2019-04-06T08:09:09.833Z,980.21
2019-04-06T08:10:09.870Z,980.19
2019-04-06T08:11:10.009Z,980.19
2019-04-06T08:12:10.124Z,980.23
2019-04-06T08:13:10.264Z,980.19
2019-04-06T08:14:10.525Z,980.20
2019-04-06T08:15:10.524Z,980.17
2019-04-06T08:16:10.707Z,980.20
2019-04-06T08:17:10.931Z,980.22
2019-04-06T08:18:10.933Z,980.21
2019-04-06T08:19:11.070Z,980.19
2019-04-06T08:20:11.187Z,980.25
2019-04-06T08:21:11.443Z,980.27
2019-04-06T08:22:11.443Z,980.23
2019-04-06T08:23:11.582Z,980.21
2019-04-06T08:24:11.882Z,980.21
2019-04-06T08:25:11.846Z,980.20
2019-04-06T08:26:11.976Z,980.22
2019-04-06T08:27:12.246Z,980.20
2019-04-06T08:28:12.233Z,980.21
2019-04-06T08:29:12.399Z,980.20
2019-04-06T08:30:12.494Z,980.22
2019-04-06T08:31:12.671Z,980.21
2019-04-06T08:32:12.757Z,980.24
2019-04-06T08:33:13.059Z,980.21
2019-04-06T08:34:13.875Z,980.21
2019-04-06T08:35:23.977Z,980.16
2019-04-06T08:36:13.283Z,980.15
2019-04-06T08:37:13.423Z,980.13
2019-04-06T08:38:13.551Z,980.13
2019-04-06T08:39:13.685Z,980.10
2019-04-06T08:40:13.825Z,980.09
2019-04-06T08:41:14.042Z,980.06
2019-04-06T08:42:14.182Z,980.09
2019-04-06T08:43:14.286Z,980.04
2019-04-06T08:44:14.493Z,980.05
2019-04-06T08:45:14.584Z,980.03
2019-04-06T08:46:14.650Z,980.03
2019-04-06T08:47:15.071Z,980.04
2019-04-06T08:48:14.941Z,980.05
2019-04-06T08:49:15.074Z,980.03
2019-04-06T08:50:15.238Z,980.04
2019-04-06T08:51:15.505Z,980.04
2019-04-06T08:52:15.493Z,980.02
2019-04-06T08:53:15.651Z,980.03
2019-04-06T08:54:15.767Z,980.00
2019-04-06T08:55:15.902Z,980.00
2019-04-06T08:56:16.021Z,979.98
2019-04-06T08:57:16.188Z,980.01
2019-04-06T08:58:16.309Z,980.02
2019-04-06T08:59:16.462Z,980.03
2019-04-06T09:00:16.630Z,980.02
2019-04-06T09:01:16.721Z,979.99
2019-04-06T09:02:16.884Z,980.05
2019-04-06T09:03:17.014Z,980.03
2019-04-06T09:04:17.157Z,979.99
2019-04-06T09:05:17.280Z,980.00
2019-04-06T09:06:17.444Z,979.96
2019-04-06T09:07:17.565Z,979.95
2019-04-06T09:08:17.710Z,979.95
2019-04-06T09:09:17.839Z,979.93
2019-04-06T09:10:18.045Z,979.92
2019-04-06T09:11:18.112Z,979.91
2019-04-06T09:12:18.224Z,979.93
2019-04-06T09:13:18.362Z,979.88
2019-04-06T09:14:18.752Z,979.89
2019-04-06T09:15:18.682Z,979.83
2019-04-06T09:16:18.808Z,979.77
2019-04-06T09:17:18.976Z,979.79
2019-04-06T09:18:19.098Z,979.79
2019-04-06T09:19:19.210Z,979.80
2019-04-06T09:20:19.368Z,979.79
2019-04-06T09:21:22.065Z,979.81
2019-04-06T09:22:19.640Z,979.81
2019-04-06T09:23:19.783Z,979.79
2019-04-06T09:24:19.933Z,979.79
2019-04-06T09:25:20.079Z,979.79
2019-04-06T09:26:20.198Z,979.80
2019-04-06T09:27:20.317Z,979.75
2019-04-06T09:28:20.535Z,979.76
2019-04-06T09:29:24.204Z,979.79
2019-04-06T09:30:20.735Z,979.79
2019-04-06T09:31:21.060Z,979.77
2019-04-06T09:32:21.060Z,979.76
2019-04-06T09:33:21.147Z,979.73
2019-04-06T09:34:21.282Z,979.74
2019-04-06T09:35:21.413Z,979.77
2019-04-06T09:36:21.900Z,979.71
2019-04-06T09:37:21.663Z,979.76
2019-04-06T09:38:22.089Z,979.69
2019-04-06T09:39:21.966Z,979.71
2019-04-06T09:40:22.090Z,979.70
2019-04-06T09:41:22.235Z,979.68
2019-04-06T09:42:22.389Z,979.68
2019-04-06T09:43:22.523Z,979.65
2019-04-06T09:44:22.846Z,979.64
2019-04-06T09:45:22.793Z,979.62
2019-04-06T09:46:22.931Z,979.61
2019-04-06T09:47:23.064Z,979.60
2019-04-06T09:48:23.189Z,979.65
2019-04-06T09:49:23.562Z,979.58
2019-04-06T09:50:23.503Z,979.61
2019-04-06T09:51:23.667Z,979.56
2019-04-06T09:52:23.727Z,979.56
2019-04-06T09:53:23.869Z,979.58
2019-04-06T09:54:24.010Z,979.58
2019-04-06T09:55:24.138Z,979.60
2019-04-06T09:56:24.257Z,979.61
2019-04-06T09:57:24.381Z,979.57
2019-04-06T09:58:24.519Z,979.56
2019-04-06T09:59:34.769Z,979.57
2019-04-06T10:00:24.801Z,979.59
2019-04-06T10:01:32.497Z,979.61
2019-04-06T10:02:25.070Z,979.60
2019-04-06T10:03:25.404Z,979.59
2019-04-06T10:04:25.372Z,979.53
2019-04-06T10:05:25.533Z,979.60
2019-04-06T10:06:25.684Z,979.63
2019-04-06T10:07:25.801Z,979.63
2019-04-06T10:08:25.945Z,979.61
2019-04-06T10:09:26.090Z,979.54
2019-04-06T10:10:26.268Z,979.58
2019-04-06T10:11:26.343Z,979.55
2019-04-06T10:12:26.807Z,979.54
2019-04-06T10:13:26.615Z,979.53
2019-04-06T10:14:26.743Z,979.49
2019-04-06T10:15:27.110Z,979.52
2019-04-06T10:16:27.013Z,979.50
2019-04-06T10:17:27.278Z,979.53
2019-04-06T10:18:27.288Z,979.55
2019-04-06T10:19:27.425Z,979.60
2019-04-06T10:20:27.551Z,979.56
2019-04-06T10:21:27.685Z,979.49
2019-04-06T10:22:27.811Z,979.48
2019-04-06T10:23:28.006Z,979.47
2019-04-06T10:24:28.097Z,979.43
2019-04-06T10:25:28.236Z,979.48
2019-04-06T10:26:28.365Z,979.50
2019-04-06T10:27:28.501Z,979.52
2019-04-06T10:28:28.644Z,979.51
2019-04-06T10:29:28.776Z,979.55
2019-04-06T10:30:29.088Z,979.60
2019-04-06T10:31:29.034Z,979.62
2019-04-06T10:32:29.177Z,979.67
2019-04-06T10:33:29.320Z,979.63
2019-04-06T10:34:29.463Z,979.67
2019-04-06T10:35:29.593Z,979.70
2019-04-06T10:36:31.438Z,979.74
2019-04-06T10:37:29.845Z,979.72
2019-04-06T10:38:29.993Z,979.73
2019-04-06T10:39:30.131Z,979.80
2019-04-06T10:40:30.281Z,979.78
2019-04-06T10:41:30.530Z,979.84
2019-04-06T10:42:30.834Z,979.88
2019-04-06T10:43:30.713Z,979.88
2019-04-06T10:44:30.848Z,979.80
2019-04-06T10:45:30.974Z,979.65
2019-04-06T10:46:31.123Z,979.63
2019-04-06T10:47:31.253Z,979.74
2019-04-06T10:48:31.421Z,979.65
2019-04-06T10:49:31.560Z,979.67
2019-04-06T10:50:31.803Z,979.71
2019-04-06T10:51:31.823Z,979.65
2019-04-06T10:52:32.053Z,979.71
2019-04-06T10:53:32.100Z,979.74
2019-04-06T10:54:32.262Z,979.68
2019-04-06T10:55:32.367Z,979.65
2019-04-06T10:56:32.539Z,979.70
2019-04-06T10:57:32.685Z,979.74
2019-04-06T10:58:32.813Z,979.82
2019-04-06T10:59:33.169Z,979.72
2019-04-06T11:00:33.118Z,979.72
2019-04-06T11:01:33.245Z,979.65
2019-04-06T11:02:33.592Z,979.62
2019-04-06T11:03:33.548Z,979.68
2019-04-06T11:04:34.000Z,979.73
2019-04-06T11:05:33.832Z,979.77
2019-04-06T11:06:33.977Z,979.77
2019-04-06T11:07:34.425Z,979.75
2019-04-06T11:08:34.307Z,979.63
2019-04-06T11:09:34.436Z,979.72
2019-04-06T11:10:34.581Z,979.78
2019-04-06T11:11:34.746Z,979.78
2019-04-06T11:12:34.881Z,979.66
2019-04-06T11:13:35.194Z,979.60
2019-04-06T11:14:35.416Z,979.60
2019-04-06T11:15:35.316Z,979.72
2019-04-06T11:16:35.455Z,979.64
2019-04-06T11:17:35.841Z,979.68
2019-04-06T11:18:35.738Z,979.68
2019-04-06T11:19:35.892Z,979.43
2019-04-06T11:20:36.040Z,979.58
2019-04-06T11:21:36.178Z,979.44
2019-04-06T11:22:36.326Z,979.41
2019-04-06T11:23:36.499Z,979.42
2019-04-06T11:24:36.641Z,979.32
2019-04-06T11:25:36.786Z,979.27
2019-04-06T11:26:36.921Z,979.22
2019-04-06T11:27:37.137Z,979.23
2019-04-06T11:28:37.234Z,979.28
2019-04-06T11:29:37.360Z,979.22
2019-04-06T11:30:37.507Z,979.24
2019-04-06T11:31:37.985Z,979.22
2019-04-06T11:32:37.902Z,979.24
2019-04-06T11:33:37.961Z,979.14
2019-04-06T11:34:38.237Z,979.17
2019-04-06T11:35:38.288Z,979.08
2019-04-06T11:36:38.447Z,979.05
2019-04-06T11:37:38.694Z,979.12
2019-04-06T11:38:38.808Z,979.12
2019-04-06T11:39:38.958Z,979.11
2019-04-06T11:40:39.115Z,979.14
2019-04-06T11:41:39.260Z,979.14
2019-04-06T11:42:39.484Z,979.10
2019-04-06T11:43:39.551Z,979.06
2019-04-06T11:44:39.696Z,978.98
2019-04-06T11:45:39.844Z,979.01
2019-04-06T11:46:40.139Z,979.07
2019-04-06T11:47:40.251Z,979.07
2019-04-06T11:48:40.359Z,979.01
2019-04-06T11:49:40.441Z,979.01
2019-04-06T11:50:40.583Z,979.00
2019-04-06T11:51:40.729Z,978.97
2019-04-06T11:52:40.881Z,978.96
2019-04-06T11:53:41.011Z,978.98
2019-04-06T11:54:41.155Z,979.07
2019-04-06T11:55:41.596Z,979.08
2019-04-06T11:56:41.518Z,979.04
2019-04-06T11:57:41.651Z,979.03
2019-04-06T11:58:41.761Z,979.06
2019-04-06T11:59:41.919Z,979.01
2019-04-06T12:00:42.045Z,979.00
2019-04-06T12:01:42.201Z,979.02
2019-04-06T12:02:42.336Z,978.76
2019-04-06T12:03:42.509Z,978.66
2019-04-06T12:04:42.648Z,978.93
2019-04-06T12:05:42.796Z,978.94
2019-04-06T12:06:43.064Z,978.97
2019-04-06T12:07:43.345Z,978.89
2019-04-06T12:08:43.264Z,978.94
2019-04-06T12:09:43.428Z,978.88
2019-04-06T12:10:43.555Z,978.87
2019-04-06T12:11:43.948Z,978.86
2019-04-06T12:12:43.862Z,978.84
2019-04-06T12:13:44.106Z,978.87
2019-04-06T12:14:44.177Z,978.84
2019-04-06T12:15:44.565Z,978.87
2019-04-06T12:16:44.474Z,978.85
2019-04-06T12:17:44.654Z,978.76
2019-04-06T12:18:44.911Z,978.78
2019-04-06T12:19:45.381Z,978.79
2019-04-06T12:20:45.204Z,978.69
2019-04-06T12:21:45.261Z,978.74
2019-04-06T12:22:45.619Z,978.68
2019-04-06T12:23:45.858Z,978.55
2019-04-06T12:24:45.708Z,978.64
2019-04-06T12:25:46.005Z,978.67
2019-04-06T12:26:46.210Z,978.71
2019-04-06T12:27:46.158Z,978.59
2019-04-06T12:28:46.314Z,978.79
2019-04-06T12:29:46.448Z,978.60